Profiler II — CZ2496 — position and weather

sailwx.info

Track history (hours):
 
Tides and Currents Weather Stations Pressure Air Temp Water Temp Dewpoint Dewpoint Depression Visibility Wind Speed Wind Dir Waves Ship Positions

Profiler II

Last reported at 2015-Jan-22 22:33 UTC. Time now 2015-Jan-26 06:30 UTC.
Position N 49°10' W 122°56'.

Type: Other ship. MMSI: 316002054.

Date/timePositionNaut miles runAvg speedWind from/ knotsBaromVisibWave heightAir tempDewpointWater temp
2015-Jan-22 22:33N 49°10' W 122°56'5 5.2
2015-Jan-22 21:33N 49°08' W 123°04'1 0.9
2015-Jan-22 20:33N 49°08' W 123°03'0 0.3
2015-Jan-22 19:33N 49°08' W 123°03'0 0.3
2015-Jan-22 18:33N 49°08' W 123°04'3 3.1
2015-Jan-22 17:34N 49°06' W 123°08'2 0.1
2015-Jan-21 23:05N 49°07' W 123°11'2 6.6
2015-Jan-21 22:50N 49°07' W 123°09'0 0.2
2015-Jan-21 22:46N 49°07' W 123°09'1 3.2
2015-Jan-21 22:33N 49°07' W 123°10'1 0.7
2015-Jan-21 21:33N 49°07' W 123°09'0 0.1
2015-Jan-21 20:33N 49°06' W 123°09'1 0.9
2015-Jan-21 19:34N 49°07' W 123°10'1 1.3
2015-Jan-21 18:33N 49°07' W 123°11'0 0.0
2015-Jan-21 17:12N 49°07' W 123°11'0 0.0
2015-Jan-20 22:34N 49°07' W 123°11'2 1.8
2015-Jan-20 21:33N 49°06' W 123°09'1 0.6
2015-Jan-20 20:33N 49°07' W 123°08'0 0.2
2015-Jan-20 19:33N 49°07' W 123°08'9 9.5
2015-Jan-20 18:34N 49°11' W 122°55'0 0.5
2015-Jan-20 17:33N 49°11' W 122°55'0 0.3
2015-Jan-20 16:33N 49°11' W 122°55'3 0.2
2015-Jan-19 21:33N 49°09' W 122°59'5 5.5
2015-Jan-19 20:33N 49°07' W 123°06'0 0.1
2015-Jan-19 19:33N 49°07' W 123°06'0 0.2
2015-Jan-19 18:33N 49°07' W 123°06'0 0.1
2015-Jan-19 17:33N 49°07' W 123°06'3 3.1
2015-Jan-19 16:33N 49°07' W 123°11'  
2015-Jan-15 21:33N 49°07' W 123°12'3 2.8
2015-Jan-15 20:33N 49°07' W 123°16'1 0.8
2015-Jan-15 19:33N 49°07' W 123°17'0 0.2
2015-Jan-15 18:33N 49°07' W 123°17'0 0.2
2015-Jan-15 17:33N 49°07' W 123°16'3 0.2
2015-Jan-14 22:20N 49°07' W 123°11'5 6.4
2015-Jan-14 21:33N 49°06' W 123°18'1 0.5
2015-Jan-14 20:33N 49°06' W 123°19'1 0.5
2015-Jan-14 19:33N 49°06' W 123°18'0 0.2
2015-Jan-14 18:33N 49°06' W 123°18'1 0.9
2015-Jan-14 17:33N 49°07' W 123°17'4 0.2
2015-Jan-13 22:19N 49°07' W 123°11'1 1.5
2015-Jan-13 21:33N 49°08' W 123°13'0 0.1
2015-Jan-13 20:33N 49°08' W 123°13'1 1.2
2015-Jan-13 19:33N 49°07' W 123°11'1 1.0
2015-Jan-13 18:33N 49°08' W 123°13'1 0.8
2015-Jan-13 17:33N 49°07' W 123°11'8 8.4
2015-Jan-13 16:33N 49°09' W 122°59'  
Track history (hours):
 
Tides and Currents Weather Stations Pressure Air Temp Water Temp Dewpoint Dewpoint Depression Visibility Wind Speed Wind Dir Waves Ship Positions

Profiler II

Last reported at 2015-Jan-22 22:33 UTC. Time now 2015-Jan-26 06:30 UTC.
Position N 49°10' W 122°56'.

Type: Other ship. MMSI: 316002054.

Date/timePositionNaut miles runAvg speedWind from/ knotsBaromVisibWave heightAir tempDewpointWater temp
2015-Jan-22 22:33N 49°10' W 122°56'5 5.2
2015-Jan-22 21:33N 49°08' W 123°04'1 0.9
2015-Jan-22 20:33N 49°08' W 123°03'0 0.3
2015-Jan-22 19:33N 49°08' W 123°03'0 0.3
2015-Jan-22 18:33N 49°08' W 123°04'3 3.1
2015-Jan-22 17:34N 49°06' W 123°08'2 0.1
2015-Jan-21 23:05N 49°07' W 123°11'2 6.6
2015-Jan-21 22:50N 49°07' W 123°09'0 0.2
2015-Jan-21 22:46N 49°07' W 123°09'1 3.2
2015-Jan-21 22:33N 49°07' W 123°10'1 0.7
2015-Jan-21 21:33N 49°07' W 123°09'0 0.1
2015-Jan-21 20:33N 49°06' W 123°09'1 0.9
2015-Jan-21 19:34N 49°07' W 123°10'1 1.3
2015-Jan-21 18:33N 49°07' W 123°11'0 0.0
2015-Jan-21 17:12N 49°07' W 123°11'0 0.0
2015-Jan-20 22:34N 49°07' W 123°11'2 1.8
2015-Jan-20 21:33N 49°06' W 123°09'1 0.6
2015-Jan-20 20:33N 49°07' W 123°08'0 0.2
2015-Jan-20 19:33N 49°07' W 123°08'9 9.5
2015-Jan-20 18:34N 49°11' W 122°55'0 0.5
2015-Jan-20 17:33N 49°11' W 122°55'0 0.3
2015-Jan-20 16:33N 49°11' W 122°55'3 0.2
2015-Jan-19 21:33N 49°09' W 122°59'5 5.5
2015-Jan-19 20:33N 49°07' W 123°06'0 0.1
2015-Jan-19 19:33N 49°07' W 123°06'0 0.2
2015-Jan-19 18:33N 49°07' W 123°06'0 0.1
2015-Jan-19 17:33N 49°07' W 123°06'3 3.1
2015-Jan-19 16:33N 49°07' W 123°11'  
2015-Jan-15 21:33N 49°07' W 123°12'3 2.8
2015-Jan-15 20:33N 49°07' W 123°16'1 0.8
2015-Jan-15 19:33N 49°07' W 123°17'0 0.2
2015-Jan-15 18:33N 49°07' W 123°17'0 0.2
2015-Jan-15 17:33N 49°07' W 123°16'3 0.2
2015-Jan-14 22:20N 49°07' W 123°11'5 6.4
2015-Jan-14 21:33N 49°06' W 123°18'1 0.5
2015-Jan-14 20:33N 49°06' W 123°19'1 0.5
2015-Jan-14 19:33N 49°06' W 123°18'0 0.2
2015-Jan-14 18:33N 49°06' W 123°18'1 0.9
2015-Jan-14 17:33N 49°07' W 123°17'4 0.2
2015-Jan-13 22:19N 49°07' W 123°11'1 1.5
2015-Jan-13 21:33N 49°08' W 123°13'0 0.1
2015-Jan-13 20:33N 49°08' W 123°13'1 1.2
2015-Jan-13 19:33N 49°07' W 123°11'1 1.0
2015-Jan-13 18:33N 49°08' W 123°13'1 0.8
2015-Jan-13 17:33N 49°07' W 123°11'8 8.4
2015-Jan-13 16:33N 49°09' W 122°59'  

Dump ship's entire track history